createdAt,value
2017-02-27T00:00:51.706Z,1005.13
2017-02-27T00:02:01.267Z,1005.15
2017-02-27T00:03:11.110Z,1005.12
2017-02-27T00:04:20.980Z,1005.1
2017-02-27T00:05:30.077Z,1005.12
2017-02-27T00:06:39.550Z,1005.14
2017-02-27T00:07:48.633Z,1005.1
2017-02-27T00:08:57.332Z,1005.02
2017-02-27T00:10:07.198Z,1005.08
2017-02-27T00:11:16.357Z,1005.01
2017-02-27T00:12:25.447Z,1004.99
2017-02-27T00:13:34.911Z,1004.98
2017-02-27T00:14:45.158Z,1005.01
2017-02-27T00:15:54.267Z,1005.03
2017-02-27T00:17:03.755Z,1005.01
2017-02-27T00:18:13.236Z,1004.98
2017-02-27T00:19:22.713Z,1004.98
2017-02-27T00:20:32.191Z,1004.89
2017-02-27T00:21:41.659Z,1004.9
2017-02-27T00:22:51.140Z,1004.93
2017-02-27T00:24:01.392Z,1004.83
2017-02-27T00:25:10.881Z,1004.9
2017-02-27T00:26:20.723Z,1004.81
2017-02-27T00:27:30.597Z,1004.92
2017-02-27T00:28:39.688Z,1004.87
2017-02-27T00:29:49.534Z,1004.83
2017-02-27T00:30:59.006Z,1004.88
2017-02-27T00:32:08.868Z,1004.83
2017-02-27T00:33:19.129Z,1004.88
2017-02-27T00:34:28.980Z,1004.85
2017-02-27T00:35:38.102Z,1004.88
2017-02-27T00:36:47.571Z,1004.85
2017-02-27T00:37:57.046Z,1004.82
2017-02-27T00:39:05.739Z,1004.87
2017-02-27T00:40:15.974Z,1004.86
2017-02-27T00:41:25.467Z,1004.82
2017-02-27T00:42:36.115Z,1004.85
2017-02-27T00:43:44.833Z,1004.86
2017-02-27T00:44:54.304Z,1004.89
2017-02-27T00:46:04.170Z,1004.83
2017-02-27T00:47:14.402Z,1004.88
2017-02-27T00:48:23.895Z,1004.82
2017-02-27T00:49:33.739Z,1004.86
2017-02-27T00:50:42.448Z,1004.9
2017-02-27T00:51:52.308Z,1004.93
2017-02-27T00:53:02.555Z,1004.92
2017-02-27T00:54:11.639Z,1004.93
2017-02-27T00:55:21.510Z,1004.91
2017-02-27T00:56:30.601Z,1004.94
2017-02-27T00:57:39.691Z,1004.89
2017-02-27T00:58:49.160Z,1004.85
2017-02-27T00:59:59.007Z,1004.89
2017-02-27T01:01:08.869Z,1004.84
2017-02-27T01:02:19.525Z,1004.81
2017-02-27T01:03:28.646Z,1004.86
2017-02-27T01:04:38.488Z,1004.87
2017-02-27T01:05:47.209Z,1004.8
2017-02-27T01:06:56.690Z,1004.84
2017-02-27T01:08:06.155Z,1004.8
2017-02-27T01:09:16.407Z,1004.8
2017-02-27T01:10:26.261Z,1004.81
2017-02-27T01:11:36.113Z,1004.87
2017-02-27T01:12:45.590Z,1004.82
2017-02-27T01:13:55.071Z,1004.79
2017-02-27T01:15:03.760Z,1004.78
2017-02-27T01:16:13.626Z,1004.82
2017-02-27T01:17:23.108Z,1004.8
2017-02-27T01:18:32.193Z,1004.81
2017-02-27T01:19:41.289Z,1004.76
2017-02-27T01:20:50.751Z,1004.8
2017-02-27T01:21:59.857Z,1004.77
2017-02-27T01:23:09.323Z,1004.78
2017-02-27T01:24:18.829Z,1004.72
2017-02-27T01:25:27.909Z,1004.75
2017-02-27T01:26:37.410Z,1004.67
2017-02-27T01:27:46.120Z,1004.7
2017-02-27T01:28:55.599Z,1004.63
2017-02-27T01:30:05.457Z,1004.72
2017-02-27T01:31:14.532Z,1004.67
2017-02-27T01:32:23.622Z,1004.66
2017-02-27T01:33:33.501Z,1004.63
2017-02-27T01:34:42.962Z,1004.54
2017-02-27T01:53:44.101Z,1004.27
2017-02-27T01:54:53.585Z,1004.21
2017-02-27T01:56:03.457Z,1004.3
2017-02-27T01:57:12.539Z,1004.24
2017-02-27T01:58:22.025Z,1004.26
2017-02-27T01:59:31.529Z,1004.23
2017-02-27T02:00:41.757Z,1004.07
2017-02-27T02:01:51.618Z,1004.16
2017-02-27T02:03:01.476Z,1004.11
2017-02-27T02:04:12.097Z,1004.13
2017-02-27T02:05:22.369Z,1004.1
2017-02-27T02:06:31.849Z,1004.04
2017-02-27T02:07:40.939Z,1004.06
2017-02-27T02:08:50.397Z,1004.02
2017-02-27T02:09:59.871Z,1003.97
2017-02-27T02:11:08.986Z,1004.01
2017-02-27T02:12:18.079Z,1003.96
2017-02-27T02:13:27.190Z,1003.93
2017-02-27T02:14:37.039Z,1003.91
2017-02-27T02:15:46.510Z,1003.93
2017-02-27T02:16:56.368Z,1003.86
2017-02-27T02:18:05.461Z,1003.89
2017-02-27T02:19:15.328Z,1003.85
2017-02-27T02:20:24.813Z,1003.83
2017-02-27T02:21:33.917Z,1003.91
2017-02-27T02:22:43.394Z,1003.9
2017-02-27T02:23:53.625Z,1003.84
2017-02-27T02:25:02.728Z,1003.89
2017-02-27T02:26:12.585Z,1003.83
2017-02-27T02:27:22.458Z,1003.81
2017-02-27T02:28:31.164Z,1003.86
2017-02-27T02:29:41.403Z,1003.7
2017-02-27T02:30:50.124Z,1003.73
2017-02-27T02:31:59.997Z,1003.72
2017-02-27T02:33:09.080Z,1003.82
2017-02-27T02:34:18.547Z,1003.73
2017-02-27T02:35:27.643Z,1003.64
2017-02-27T02:36:37.122Z,1003.67
2017-02-27T02:37:46.601Z,1003.68
2017-02-27T02:38:56.106Z,1003.74
2017-02-27T02:40:06.339Z,1003.63
2017-02-27T02:41:15.799Z,1003.77
2017-02-27T02:42:25.697Z,1003.68
2017-02-27T02:43:34.804Z,1003.57
2017-02-27T02:44:44.280Z,1003.55
2017-02-27T02:45:54.155Z,1003.57
2017-02-27T02:47:04.012Z,1003.46
2017-02-27T02:48:13.489Z,1003.51
2017-02-27T02:49:23.350Z,1003.51
2017-02-27T02:50:32.816Z,1003.5
2017-02-27T02:51:41.893Z,1003.47
2017-02-27T02:52:51.753Z,1003.36
2017-02-27T02:54:01.614Z,1003.38
2017-02-27T02:55:11.490Z,1003.44
2017-02-27T02:56:20.577Z,1003.39
2017-02-27T02:57:30.041Z,1003.38
2017-02-27T02:58:39.132Z,1003.27
2017-02-27T02:59:49.749Z,1003.36
2017-02-27T03:00:59.989Z,1003.31
2017-02-27T03:02:09.502Z,1003.31
2017-02-27T03:03:19.376Z,1003.28
2017-02-27T03:04:29.307Z,1003.29
2017-02-27T03:05:39.587Z,1003.27
2017-02-27T03:06:48.701Z,1003.25
2017-02-27T03:07:58.174Z,1003.18
2017-02-27T03:09:07.645Z,1003.21
2017-02-27T03:10:16.718Z,1003.21
2017-02-27T03:11:27.341Z,1003.1
2017-02-27T03:12:36.826Z,1003.17
2017-02-27T03:13:45.920Z,1003.18
2017-02-27T03:14:55.005Z,1003.13
2017-02-27T03:16:04.491Z,1003.16
2017-02-27T03:17:13.593Z,1003.08
2017-02-27T03:18:22.686Z,1003.08
2017-02-27T03:19:32.151Z,1003.08
2017-02-27T03:20:41.256Z,1003.05
2017-02-27T03:21:50.365Z,1003.05
2017-02-27T03:22:59.459Z,1003.04
2017-02-27T03:24:09.702Z,1003.05
2017-02-27T03:25:19.559Z,1003.03
2017-02-27T03:26:29.409Z,1002.96
2017-02-27T03:27:39.293Z,1002.95
2017-02-27T03:28:48.416Z,1002.88
2017-02-27T03:29:57.706Z,1002.82
2017-02-27T03:31:06.825Z,1002.81
2017-02-27T03:32:15.538Z,1002.83
2017-02-27T03:33:25.015Z,1002.84
2017-02-27T03:34:34.876Z,1002.83
2017-02-27T03:35:45.108Z,1002.8
2017-02-27T03:36:54.223Z,1002.75
2017-02-27T03:38:04.094Z,1002.76
2017-02-27T03:39:13.578Z,1002.75
2017-02-27T03:40:22.298Z,1002.69
2017-02-27T03:41:32.184Z,1002.67
2017-02-27T03:42:41.657Z,1002.7
2017-02-27T03:43:51.123Z,1002.68
2017-02-27T03:45:00.236Z,1002.65
2017-02-27T03:46:08.955Z,1002.76
2017-02-27T03:47:18.037Z,1002.72
2017-02-27T03:48:27.894Z,1002.68
2017-02-27T03:49:37.410Z,1002.67
2017-02-27T03:50:47.267Z,1002.66
2017-02-27T03:51:56.762Z,1002.67
2017-02-27T03:53:05.843Z,1002.66
2017-02-27T03:54:14.957Z,1002.63
2017-02-27T03:55:24.413Z,1002.6
2017-02-27T03:56:33.874Z,1002.63
2017-02-27T03:57:43.724Z,1002.57
2017-02-27T03:58:53.594Z,1002.61
2017-02-27T04:00:03.076Z,1002.6
2017-02-27T04:01:12.926Z,1002.56
2017-02-27T04:02:22.027Z,1002.57
2017-02-27T04:03:31.892Z,1002.57
2017-02-27T04:04:41.379Z,1002.55
2017-02-27T04:05:50.502Z,1002.5
2017-02-27T04:06:59.979Z,1002.59
2017-02-27T04:08:11.246Z,1002.61
2017-02-27T04:09:28.026Z,1002.56
2017-02-27T04:10:49.368Z,1002.53
2017-02-27T04:12:06.881Z,1002.48
2017-02-27T04:13:27.062Z,1002.53
2017-02-27T04:14:36.543Z,1002.48
2017-02-27T04:15:48.425Z,1002.46
2017-02-27T04:17:04.098Z,1002.46
2017-02-27T04:18:13.405Z,1002.43
2017-02-27T04:19:23.407Z,1002.44
2017-02-27T04:20:32.512Z,1002.38
2017-02-27T04:21:42.391Z,1002.36
2017-02-27T04:22:52.255Z,1002.32
2017-02-27T04:24:01.358Z,1002.29
2017-02-27T04:25:11.631Z,1002.28
2017-02-27T04:26:20.353Z,1002.3
2017-02-27T04:27:30.221Z,1002.25
2017-02-27T04:28:39.318Z,1002.34
2017-02-27T04:29:49.169Z,1002.29
2017-02-27T04:30:58.656Z,1002.3
2017-02-27T04:32:08.123Z,1002.35
2017-02-27T04:33:18.349Z,1002.25
2017-02-27T04:34:27.456Z,1002.19
2017-02-27T04:35:36.955Z,1002.26
2017-02-27T04:36:46.422Z,1002.24
2017-02-27T04:37:55.887Z,1002.24
2017-02-27T04:39:05.770Z,1002.21
2017-02-27T04:40:16.022Z,1002.19
2017-02-27T04:41:26.647Z,1002.16
2017-02-27T04:42:36.138Z,1002.2
2017-02-27T04:43:45.987Z,1002.15
2017-02-27T04:44:55.469Z,1002.16
2017-02-27T04:46:04.552Z,1002.15
2017-02-27T04:47:14.036Z,1002.11
2017-02-27T04:48:24.694Z,1002.13
2017-02-27T04:49:33.801Z,1002.08
2017-02-27T04:50:42.894Z,1002.09
2017-02-27T04:51:52.749Z,1001.99
2017-02-27T04:53:02.601Z,1002.05
2017-02-27T04:54:12.057Z,1001.99
2017-02-27T04:55:21.146Z,1002.03
2017-02-27T04:56:30.641Z,1002.04
2017-02-27T04:57:39.739Z,1002.04
2017-02-27T04:58:49.586Z,1002.04
2017-02-27T04:59:59.436Z,1001.95
2017-02-27T05:01:09.671Z,1002
2017-02-27T05:02:19.506Z,1001.88
2017-02-27T05:03:29.367Z,1001.95
2017-02-27T05:04:39.589Z,1001.85
2017-02-27T05:05:49.441Z,1001.88
2017-02-27T05:06:58.538Z,1001.83
2017-02-27T05:08:08.420Z,1001.84
2017-02-27T05:09:17.512Z,1001.78
2017-02-27T05:10:26.995Z,1001.76
2017-02-27T05:11:36.070Z,1001.78
2017-02-27T05:12:45.940Z,1001.69
2017-02-27T05:13:56.192Z,1001.68
2017-02-27T05:15:05.675Z,1001.69
2017-02-27T05:16:16.286Z,1001.62
2017-02-27T05:17:25.796Z,1001.6
2017-02-27T05:18:35.262Z,1001.58
2017-02-27T05:19:44.356Z,1001.59
2017-02-27T05:20:54.219Z,1001.57
2017-02-27T05:22:04.105Z,1001.58
2017-02-27T05:23:13.565Z,1001.53
2017-02-27T05:24:23.031Z,1001.47
2017-02-27T05:25:32.122Z,1001.49
2017-02-27T05:26:40.838Z,1001.46
2017-02-27T05:27:50.322Z,1001.42
2017-02-27T05:29:00.624Z,1001.4
2017-02-27T05:30:09.721Z,1001.38
2017-02-27T05:31:19.204Z,1001.33
2017-02-27T05:32:29.070Z,1001.36
2017-02-27T05:33:37.788Z,1001.35
2017-02-27T05:34:46.886Z,1001.36
2017-02-27T05:35:56.385Z,1001.4
2017-02-27T05:37:05.483Z,1001.35
2017-02-27T05:38:14.984Z,1001.33
2017-02-27T05:39:23.705Z,1001.32
2017-02-27T05:40:33.576Z,1001.38
2017-02-27T05:41:43.092Z,1001.3
2017-02-27T05:42:52.947Z,1001.28
2017-02-27T05:44:02.043Z,1001.32
2017-02-27T05:45:11.505Z,1001.26
2017-02-27T05:46:21.360Z,1001.23
2017-02-27T05:47:31.969Z,1001.19
2017-02-27T05:48:41.809Z,1001.22
2017-02-27T05:49:50.875Z,1001.14
2017-02-27T05:51:00.747Z,1001.13
2017-02-27T05:52:09.841Z,1001.16
2017-02-27T05:53:19.319Z,1001.09
2017-02-27T05:54:29.585Z,1001.07
2017-02-27T05:55:38.698Z,1001.03
2017-02-27T05:56:47.393Z,1001.07
2017-02-27T05:57:56.486Z,1001.07
2017-02-27T05:59:06.332Z,1001.05
2017-02-27T06:00:15.801Z,1001.06
2017-02-27T06:01:25.299Z,1001.03
2017-02-27T06:02:35.194Z,1001.02
2017-02-27T06:03:44.673Z,1000.94
2017-02-27T06:04:54.149Z,1001.05
2017-02-27T06:06:03.625Z,1001.03
2017-02-27T06:07:13.470Z,1000.98
2017-02-27T06:08:22.556Z,1001
2017-02-27T06:09:32.051Z,1000.96
2017-02-27T06:10:41.528Z,1000.96
2017-02-27T06:11:51.403Z,1000.95
2017-02-27T06:13:00.892Z,1000.87
2017-02-27T06:14:09.984Z,1000.93
2017-02-27T06:15:19.839Z,1000.84
2017-02-27T06:16:30.083Z,1000.78
2017-02-27T06:17:39.577Z,1000.83
2017-02-27T06:18:49.066Z,1000.81
2017-02-27T06:19:58.569Z,1000.88
2017-02-27T06:21:07.665Z,1000.81
2017-02-27T06:22:17.511Z,1000.81
2017-02-27T06:23:26.207Z,1000.85
2017-02-27T06:24:35.288Z,1000.82
2017-02-27T06:25:44.408Z,1000.84
2017-02-27T06:26:54.662Z,1000.8
2017-02-27T06:28:03.773Z,1000.78
2017-02-27T06:29:14.012Z,1000.71
2017-02-27T06:30:23.869Z,1000.73
2017-02-27T06:31:33.352Z,1000.74
2017-02-27T06:32:42.454Z,1000.79
2017-02-27T06:33:51.544Z,1000.74
2017-02-27T06:35:01.407Z,1000.7
2017-02-27T06:36:11.280Z,1000.67
2017-02-27T06:37:19.982Z,1000.68
2017-02-27T06:38:29.453Z,1000.66
2017-02-27T06:39:39.305Z,1000.63
2017-02-27T06:40:48.773Z,1000.66
2017-02-27T06:41:58.629Z,1000.73
2017-02-27T06:43:08.501Z,1000.63
2017-02-27T06:44:18.379Z,1000.69
2017-02-27T06:45:28.253Z,1000.63
2017-02-27T06:46:38.130Z,1000.61
2017-02-27T06:47:47.974Z,1000.72
2017-02-27T06:48:57.820Z,1000.48
2017-02-27T06:50:07.683Z,1000.63
2017-02-27T06:51:17.164Z,1000.61
2017-02-27T06:52:26.264Z,1000.68
2017-02-27T06:53:36.118Z,1000.77
2017-02-27T06:54:45.575Z,1000.64
2017-02-27T06:55:55.828Z,1000.54
2017-02-27T06:57:05.323Z,1000.63
2017-02-27T06:58:15.547Z,1000.66
2017-02-27T06:59:24.250Z,1000.5
2017-02-27T07:00:33.729Z,1000.52
2017-02-27T07:01:43.220Z,1000.57
2017-02-27T07:02:52.702Z,1000.57
2017-02-27T07:04:01.800Z,1000.47
2017-02-27T07:05:11.287Z,1000.45
2017-02-27T07:06:20.385Z,1000.53
2017-02-27T07:07:29.869Z,1000.48
2017-02-27T07:08:38.967Z,1000.43
2017-02-27T07:09:48.801Z,1000.44
2017-02-27T07:10:58.648Z,1000.39
2017-02-27T07:12:08.118Z,1000.48
2017-02-27T07:13:17.215Z,1000.43
2017-02-27T07:14:27.087Z,1000.32
2017-02-27T07:15:36.949Z,999.95
2017-02-27T07:16:45.648Z,1000.41
2017-02-27T07:17:55.501Z,1000.5
2017-02-27T07:19:04.985Z,1000.51
2017-02-27T07:20:14.494Z,1000.43
2017-02-27T07:21:24.341Z,1000.4
2017-02-27T07:22:33.831Z,1000.34
2017-02-27T07:23:43.312Z,1000.34
2017-02-27T07:24:52.799Z,1000.31
2017-02-27T07:26:02.666Z,1000.21
2017-02-27T07:27:11.756Z,1000.19
2017-02-27T07:28:21.602Z,1000.28
2017-02-27T07:29:30.693Z,1000.3
2017-02-27T07:30:40.921Z,1000.28
2017-02-27T07:31:50.406Z,1000.25
2017-02-27T07:32:59.511Z,1000.26
2017-02-27T07:34:09.369Z,1000.22
2017-02-27T07:35:19.227Z,1000.23
2017-02-27T07:36:27.968Z,1000.25
2017-02-27T07:37:37.432Z,1000.23
2017-02-27T07:38:46.128Z,1000.21
2017-02-27T07:39:55.230Z,1000.24
2017-02-27T07:41:04.712Z,1000.2
2017-02-27T07:42:14.559Z,1000.15
2017-02-27T07:43:23.656Z,1000.09
2017-02-27T07:44:32.738Z,1000.12
2017-02-27T07:45:42.217Z,1000.11
2017-02-27T07:46:52.860Z,1000.08
2017-02-27T07:48:02.349Z,1000.15
2017-02-27T07:49:11.446Z,1000.01
2017-02-27T07:50:21.318Z,1000.07
2017-02-27T07:51:30.023Z,1000.08
2017-02-27T07:52:39.211Z,1000.14
2017-02-27T07:53:49.058Z,1000.14
2017-02-27T07:54:58.155Z,1000.06
2017-02-27T07:56:08.028Z,1000.02
2017-02-27T07:57:17.536Z,1000.13
2017-02-27T07:58:27.001Z,1000.04
2017-02-27T07:59:35.708Z,1000.03
2017-02-27T08:00:45.187Z,1000.04
2017-02-27T08:01:55.026Z,999.95
2017-02-27T08:03:04.897Z,1000
2017-02-27T08:04:13.981Z,1000.09
2017-02-27T08:05:22.686Z,999.98
2017-02-27T08:06:32.548Z,999.97
2017-02-27T08:07:42.398Z,999.91
2017-02-27T08:08:51.878Z,999.93
2017-02-27T08:10:01.365Z,999.89
2017-02-27T08:11:11.208Z,999.87
2017-02-27T08:12:21.057Z,999.84
2017-02-27T08:13:30.530Z,999.93
2017-02-27T08:14:40.761Z,999.84
2017-02-27T08:15:50.642Z,999.89
2017-02-27T08:16:59.720Z,999.79
2017-02-27T08:18:09.194Z,999.81
2017-02-27T08:19:18.288Z,999.8
2017-02-27T08:20:26.988Z,999.71
2017-02-27T08:21:36.455Z,999.72
2017-02-27T08:22:45.925Z,999.69
2017-02-27T08:23:55.785Z,999.69
2017-02-27T08:25:04.856Z,999.74
2017-02-27T08:26:14.343Z,999.81
2017-02-27T08:27:24.220Z,999.74
2017-02-27T08:28:33.682Z,999.71
2017-02-27T08:29:43.544Z,999.74
2017-02-27T08:30:53.033Z,999.71
2017-02-27T08:32:02.901Z,999.71
2017-02-27T08:33:12.357Z,999.68
2017-02-27T08:34:22.262Z,999.7
2017-02-27T08:35:32.895Z,999.66
2017-02-27T08:36:42.744Z,999.66
2017-02-27T08:37:52.224Z,999.61
2017-02-27T08:39:02.097Z,999.56
2017-02-27T08:40:11.588Z,999.53
2017-02-27T08:41:21.447Z,999.47
2017-02-27T08:42:31.322Z,999.49
2017-02-27T08:43:40.821Z,999.47
2017-02-27T08:44:51.060Z,999.33
2017-02-27T08:46:00.911Z,999.4
2017-02-27T08:47:10.383Z,999.38
2017-02-27T08:48:20.618Z,999.41
2017-02-27T08:49:30.098Z,999.13
2017-02-27T08:50:39.186Z,999.17
2017-02-27T08:51:48.667Z,999.32
2017-02-27T08:52:57.762Z,999.25
2017-02-27T08:54:08.010Z,999.18
2017-02-27T08:55:16.739Z,999.21
2017-02-27T08:56:27.000Z,999.2
2017-02-27T08:57:36.482Z,999.16
2017-02-27T08:58:45.970Z,999.12
2017-02-27T08:59:55.075Z,999.09
2017-02-27T09:01:04.162Z,999.17
2017-02-27T09:02:13.647Z,999.15
2017-02-27T09:03:22.809Z,999.11
2017-02-27T09:04:32.299Z,999.03
2017-02-27T09:05:42.539Z,999.04
2017-02-27T09:06:53.159Z,998.98
2017-02-27T09:08:03.384Z,998.97
2017-02-27T09:09:13.242Z,998.91
2017-02-27T09:10:21.962Z,998.83
2017-02-27T09:11:31.814Z,998.87
2017-02-27T09:12:42.456Z,998.9
2017-02-27T09:13:51.935Z,998.81
2017-02-27T09:15:01.811Z,998.78
2017-02-27T09:16:11.286Z,998.75
2017-02-27T09:17:20.401Z,998.76
2017-02-27T09:18:30.266Z,998.64
2017-02-27T09:19:40.146Z,998.6
2017-02-27T09:20:49.987Z,998.67
2017-02-27T09:21:59.861Z,998.45
2017-02-27T09:23:09.335Z,998.65
2017-02-27T09:24:18.824Z,998.61
2017-02-27T09:25:28.666Z,998.63
2017-02-27T09:26:40.164Z,998.64
2017-02-27T09:27:54.089Z,998.68
2017-02-27T09:29:03.580Z,998.57
2017-02-27T09:30:13.050Z,998.65
2017-02-27T09:31:22.553Z,998.63
2017-02-27T09:32:32.031Z,998.61
2017-02-27T09:33:40.754Z,998.62
2017-02-27T09:34:50.245Z,998.54
2017-02-27T09:36:00.499Z,998.44
2017-02-27T09:37:10.375Z,998.57
2017-02-27T09:38:19.463Z,998.54
2017-02-27T09:39:29.728Z,998.52
2017-02-27T09:40:38.831Z,998.5
2017-02-27T09:41:47.935Z,998.57
2017-02-27T09:42:57.043Z,998.4
2017-02-27T09:44:06.904Z,998.46
2017-02-27T09:45:15.995Z,998.34
2017-02-27T09:46:25.906Z,998.31
2017-02-27T09:47:36.142Z,998.31
2017-02-27T09:48:45.856Z,998.29
2017-02-27T09:49:55.707Z,998.33
2017-02-27T09:51:05.167Z,998.33
2017-02-27T09:52:14.656Z,998.34
2017-02-27T09:53:23.748Z,998.33
2017-02-27T09:54:33.229Z,998.36
2017-02-27T09:55:42.694Z,998.16
2017-02-27T09:56:52.182Z,998.17
2017-02-27T09:58:02.443Z,998.37
2017-02-27T09:59:11.914Z,998.03
2017-02-27T10:00:20.652Z,998.19
2017-02-27T10:01:30.512Z,998.26
2017-02-27T10:02:40.375Z,998.19
2017-02-27T10:03:50.608Z,998.08
2017-02-27T10:05:00.101Z,998.08
2017-02-27T10:06:09.577Z,998.15
2017-02-27T10:07:19.841Z,998.16
2017-02-27T10:08:29.698Z,998.1
2017-02-27T10:09:38.791Z,998.07
2017-02-27T10:10:49.048Z,998.03
2017-02-27T10:11:58.508Z,998.03
2017-02-27T10:13:07.617Z,998.06
2017-02-27T10:14:18.242Z,997.93
2017-02-27T10:15:27.715Z,997.92
2017-02-27T10:16:36.830Z,997.94
2017-02-27T10:17:46.710Z,997.94
2017-02-27T10:18:56.594Z,997.82
2017-02-27T10:20:06.071Z,997.87
2017-02-27T10:21:16.322Z,997.78
2017-02-27T10:22:26.178Z,997.77
2017-02-27T10:23:34.889Z,997.71
2017-02-27T10:24:44.358Z,997.72
2017-02-27T10:25:54.607Z,997.66
2017-02-27T10:27:04.100Z,997.52
2017-02-27T10:28:13.581Z,997.57
2017-02-27T10:29:23.459Z,997.55
2017-02-27T10:30:33.688Z,997.54
2017-02-27T10:31:42.794Z,997.55
2017-02-27T10:32:52.695Z,997.53
2017-02-27T10:34:02.970Z,997.49
2017-02-27T10:35:12.076Z,997.35
2017-02-27T10:36:21.166Z,997.45
2017-02-27T10:37:31.397Z,997.47
2017-02-27T10:38:42.047Z,997.5
2017-02-27T10:39:51.907Z,997.52
2017-02-27T10:41:01.390Z,997.33
2017-02-27T10:42:10.860Z,997.44
2017-02-27T10:43:19.963Z,997.44
2017-02-27T10:44:28.686Z,997.39
2017-02-27T10:45:38.167Z,997.24
2017-02-27T10:46:47.651Z,997.3
2017-02-27T10:47:57.118Z,997.18
2017-02-27T10:49:06.988Z,997.19
2017-02-27T10:50:17.226Z,997.2
2017-02-27T10:51:26.321Z,997.28
2017-02-27T10:52:35.418Z,997.15
2017-02-27T10:53:45.298Z,997.1
2017-02-27T10:54:55.560Z,996.96
2017-02-27T10:56:05.814Z,996.95
2017-02-27T10:57:16.056Z,997.01
2017-02-27T10:58:25.539Z,997.06
2017-02-27T10:59:35.025Z,996.95
2017-02-27T11:00:45.300Z,997.02
2017-02-27T11:01:54.781Z,996.93
2017-02-27T11:03:03.874Z,996.94
2017-02-27T11:04:13.356Z,996.91
2017-02-27T11:05:22.822Z,996.84
2017-02-27T11:06:32.673Z,996.75
2017-02-27T11:07:42.546Z,996.93
2017-02-27T11:08:51.286Z,996.88
2017-02-27T11:10:01.544Z,996.81
2017-02-27T11:11:11.399Z,996.61
2017-02-27T11:12:20.108Z,996.69
2017-02-27T11:13:28.806Z,996.62
2017-02-27T11:14:37.896Z,996.49
2017-02-27T11:15:47.778Z,996.46
2017-02-27T11:16:57.658Z,996.46
2017-02-27T11:18:07.133Z,996.42
2017-02-27T11:19:16.608Z,996.44
2017-02-27T11:20:26.466Z,996.4
2017-02-27T11:21:36.340Z,996.36
2017-02-27T11:22:46.635Z,996.31
2017-02-27T11:23:55.749Z,996.33
2017-02-27T11:25:05.612Z,996.22
2017-02-27T11:26:15.472Z,996.33
2017-02-27T11:27:24.987Z,996.24
2017-02-27T11:28:34.480Z,996.19
2017-02-27T11:29:43.963Z,996.13
2017-02-27T11:30:53.827Z,996.13
2017-02-27T11:32:03.322Z,996.1
2017-02-27T11:33:12.437Z,996.1
2017-02-27T11:34:22.304Z,996.15
2017-02-27T11:35:31.809Z,996.13
2017-02-27T11:36:40.921Z,996.1
2017-02-27T11:37:50.013Z,996.02
2017-02-27T11:38:59.126Z,995.88
2017-02-27T11:40:09.000Z,996.02
2017-02-27T11:41:18.462Z,995.87
2017-02-27T11:42:27.941Z,995.94
2017-02-27T11:43:38.192Z,995.98
2017-02-27T11:44:47.720Z,995.78
2017-02-27T11:45:57.602Z,995.78
2017-02-27T11:47:07.479Z,995.8
2017-02-27T11:48:17.355Z,995.69
2017-02-27T11:49:26.834Z,995.69
2017-02-27T11:50:36.292Z,995.7
2017-02-27T11:51:45.764Z,995.65
2017-02-27T11:52:54.468Z,995.52
2017-02-27T11:54:03.546Z,995.59
2017-02-27T11:55:13.044Z,995.54
2017-02-27T11:56:22.910Z,995.54
2017-02-27T11:57:33.141Z,995.6
2017-02-27T11:58:43.010Z,995.5
2017-02-27T11:59:52.509Z,995.44
2017-02-27T12:01:01.627Z,995.42
2017-02-27T12:02:11.092Z,995.45
2017-02-27T12:03:21.335Z,995.35
2017-02-27T12:04:30.453Z,995.4
2017-02-27T12:05:39.923Z,995.34
2017-02-27T12:06:49.014Z,995.33
2017-02-27T12:07:59.264Z,995.28
2017-02-27T12:09:09.118Z,995.22
2017-02-27T12:10:18.597Z,995.38
2017-02-27T12:11:28.460Z,995.21
2017-02-27T12:12:38.338Z,995.11
2017-02-27T12:13:47.431Z,995.1
2017-02-27T12:14:56.937Z,995.03
2017-02-27T12:16:06.417Z,995
2017-02-27T12:17:16.292Z,994.95
2017-02-27T12:18:25.399Z,994.92
2017-02-27T12:19:35.249Z,994.83
2017-02-27T12:20:45.130Z,994.74
2017-02-27T12:21:54.985Z,994.78
2017-02-27T12:23:03.691Z,994.87
2017-02-27T12:24:13.159Z,994.75
2017-02-27T12:25:23.030Z,994.78
2017-02-27T12:26:32.503Z,994.74
2017-02-27T12:27:42.364Z,994.55
2017-02-27T12:28:52.211Z,994.68
2017-02-27T12:30:01.718Z,994.54
2017-02-27T12:31:11.575Z,994.6
2017-02-27T12:32:21.835Z,994.49
2017-02-27T12:33:30.557Z,994.54
2017-02-27T12:34:40.820Z,994.48
2017-02-27T12:35:50.667Z,994.39
2017-02-27T12:37:00.138Z,994.33
2017-02-27T12:38:10.009Z,994.3
2017-02-27T12:39:19.501Z,994.39
2017-02-27T12:40:28.607Z,994.29
2017-02-27T12:41:38.865Z,994.22
2017-02-27T12:42:49.483Z,994.41
2017-02-27T12:43:58.958Z,994.31
2017-02-27T12:45:07.665Z,994.28
2017-02-27T12:46:17.530Z,994.3
2017-02-27T12:47:27.008Z,994.18
2017-02-27T12:48:36.130Z,994.33
2017-02-27T12:49:45.985Z,994.12
2017-02-27T12:50:54.695Z,994.28
2017-02-27T12:52:03.406Z,994.05
2017-02-27T12:53:12.133Z,994.16
2017-02-27T12:54:22.368Z,993.92
2017-02-27T12:55:32.220Z,993.86
2017-02-27T12:56:41.705Z,993.98
2017-02-27T12:57:51.194Z,993.93
2017-02-27T12:59:00.684Z,993.93
2017-02-27T13:00:10.175Z,993.94
2017-02-27T13:01:18.901Z,993.92
2017-02-27T13:02:28.376Z,993.82
2017-02-27T13:03:37.094Z,993.74
2017-02-27T13:04:46.589Z,993.79
2017-02-27T13:05:56.069Z,993.65
2017-02-27T13:07:05.947Z,993.69
2017-02-27T13:08:15.799Z,993.74
2017-02-27T13:09:25.279Z,993.69
2017-02-27T13:10:35.163Z,993.76
2017-02-27T13:11:45.011Z,993.7
2017-02-27T13:12:54.484Z,993.77
2017-02-27T13:14:04.340Z,993.64
2017-02-27T13:15:14.192Z,993.58
2017-02-27T13:16:24.056Z,993.59
2017-02-27T13:17:32.784Z,993.6
2017-02-27T13:18:42.670Z,993.47
2017-02-27T13:19:52.153Z,993.58
2017-02-27T13:21:02.389Z,993.56
2017-02-27T13:22:13.022Z,993.56
2017-02-27T13:23:22.509Z,993.37
2017-02-27T13:24:31.622Z,993.38
2017-02-27T13:25:40.723Z,993.41
2017-02-27T13:26:49.820Z,993.36
2017-02-27T13:27:59.310Z,993.34
2017-02-27T13:29:08.802Z,993.31
2017-02-27T13:30:18.678Z,993.26
2017-02-27T13:31:27.788Z,993.26
2017-02-27T13:32:37.292Z,993.17
2017-02-27T13:33:47.171Z,993.04
2017-02-27T13:34:56.657Z,992.99
2017-02-27T13:36:06.532Z,992.85
2017-02-27T13:37:16.379Z,992.85
2017-02-27T13:38:25.848Z,992.81
2017-02-27T13:39:35.327Z,992.82
2017-02-27T13:40:44.471Z,992.68
2017-02-27T13:41:54.343Z,992.65
2017-02-27T13:43:04.960Z,992.65
2017-02-27T13:44:14.823Z,992.72
2017-02-27T13:45:24.304Z,992.62
2017-02-27T13:46:34.183Z,992.69
2017-02-27T13:47:44.064Z,992.61
2017-02-27T13:48:53.526Z,992.58
2017-02-27T13:50:03.809Z,992.46
2017-02-27T13:51:13.322Z,992.59
2017-02-27T13:52:22.428Z,992.41
2017-02-27T13:53:32.296Z,992.2
2017-02-27T13:54:42.189Z,992.39
2017-02-27T13:55:52.033Z,992.21
2017-02-27T13:57:01.563Z,992.2
2017-02-27T13:58:10.661Z,992.09
2017-02-27T13:59:20.572Z,992.15
2017-02-27T14:00:30.438Z,992.06
2017-02-27T14:01:39.922Z,992.18
2017-02-27T14:02:50.547Z,992.18
2017-02-27T14:04:00.024Z,992.02
2017-02-27T14:05:09.123Z,992.1
2017-02-27T14:06:18.610Z,992.11
2017-02-27T14:07:27.704Z,992.03
2017-02-27T14:08:36.797Z,991.91
2017-02-27T14:09:45.903Z,991.9
2017-02-27T14:10:55.797Z,991.94
2017-02-27T14:12:04.513Z,991.91
2017-02-27T14:13:14.382Z,991.78
2017-02-27T14:14:24.264Z,991.75
2017-02-27T14:15:34.506Z,991.77
2017-02-27T14:16:44.352Z,991.72
2017-02-27T14:17:54.213Z,991.76
2017-02-27T14:19:03.691Z,991.74
2017-02-27T14:20:13.561Z,991.59
2017-02-27T14:21:23.037Z,991.65
2017-02-27T14:22:33.306Z,991.63
2017-02-27T14:23:43.222Z,991.51
2017-02-27T14:24:53.100Z,991.54
2017-02-27T14:26:02.969Z,991.41
2017-02-27T14:27:12.499Z,991.49
2017-02-27T14:28:22.361Z,991.45
2017-02-27T14:29:31.820Z,991.4
2017-02-27T14:30:41.293Z,991.29
2017-02-27T14:31:50.756Z,991.13
2017-02-27T14:33:00.242Z,991.23
2017-02-27T14:34:09.369Z,991.18
2017-02-27T14:35:18.836Z,991.14